Time;durP1;ratioP1;P1;durP2;ratioP2;P2;SDS_P1;SDS_P2;PMS_P1;PMS_P2;Temp;Humidity;BMP_temperature;BMP_pressure;BME280_temperature;BME280_humidity;BME280_pressure;Samples;Min_cycle;Max_cycle;Signal;HPM_P1;HPM_P2
2022/04/04 00:00:44;;;;;;;5.63;2.55;;;5.00;99.90;;;;;;5010840;28;20414;-64
2022/04/04 00:03:10;;;;;;;7.95;2.88;;;5.00;99.90;;;;;;5010638;28;20103;-64
2022/04/04 00:05:36;;;;;;;7.53;2.78;;;5.00;99.90;;;;;;5010768;28;20042;-64
2022/04/04 00:08:02;;;;;;;4.00;2.15;;;5.10;99.90;;;;;;5024251;28;20084;-64
2022/04/04 00:10:28;;;;;;;3.70;2.30;;;5.20;99.90;;;;;;5027255;28;20037;-64
2022/04/04 00:12:54;;;;;;;4.90;2.42;;;5.10;99.90;;;;;;5010323;28;20042;-64
2022/04/04 00:15:20;;;;;;;4.55;2.92;;;5.20;99.90;;;;;;5006927;28;20644;-64
2022/04/04 00:17:46;;;;;;;8.77;2.90;;;5.20;99.90;;;;;;5009375;28;20044;-63
2022/04/04 00:20:12;;;;;;;7.50;3.35;;;5.20;99.90;;;;;;5011893;28;20045;-64
2022/04/04 00:22:38;;;;;;;9.85;3.95;;;5.20;99.90;;;;;;5014261;28;20447;-64
2022/04/04 00:25:04;;;;;;;7.70;4.00;;;5.30;99.90;;;;;;5008824;28;20042;-64
2022/04/04 00:27:30;;;;;;;6.68;3.83;;;5.30;99.90;;;;;;5007506;28;20057;-64
2022/04/04 00:29:55;;;;;;;8.80;5.13;;;5.30;99.90;;;;;;5021991;28;20053;-64
2022/04/04 00:32:21;;;;;;;9.43;4.57;;;5.40;99.90;;;;;;5027229;28;20041;-64
2022/04/04 00:34:47;;;;;;;10.23;4.15;;;5.40;99.90;;;;;;5016964;28;20050;-64
2022/04/04 00:37:12;;;;;;;10.38;5.18;;;5.40;99.90;;;;;;5007944;28;20497;-63
2022/04/04 00:39:38;;;;;;;9.52;5.50;;;5.40;99.90;;;;;;5009944;28;20400;-63
2022/04/04 00:42:04;;;;;;;11.48;5.43;;;5.40;99.90;;;;;;5022373;28;20050;-64
2022/04/04 00:44:29;;;;;;;7.68;5.43;;;5.50;99.90;;;;;;5007570;28;20053;-64
2022/04/04 00:46:55;;;;;;;6.68;4.82;;;5.50;99.90;;;;;;5013905;28;20042;-64
2022/04/04 00:49:21;;;;;;;10.55;6.38;;;5.50;99.90;;;;;;5020067;28;20065;-63
2022/04/04 00:51:46;;;;;;;10.75;6.35;;;5.50;99.90;;;;;;5015338;28;20046;-64
2022/04/04 00:54:13;;;;;;;10.52;6.18;;;5.60;99.90;;;;;;5013250;28;20054;-64
2022/04/04 00:56:39;;;;;;;10.93;7.68;;;5.60;99.90;;;;;;5012525;28;20041;-64
2022/04/04 00:59:06;;;;;;;12.10;7.00;;;5.60;99.90;;;;;;5014086;28;20460;-64
2022/04/04 01:01:32;;;;;;;14.27;7.20;;;5.60;99.90;;;;;;5012141;28;20092;-64
2022/04/04 01:03:58;;;;;;;12.98;7.50;;;5.60;99.90;;;;;;5023011;28;20052;-64
2022/04/04 01:06:23;;;;;;;14.13;7.60;;;5.60;99.90;;;;;;5025399;28;20042;-64
2022/04/04 01:08:49;;;;;;;13.50;8.40;;;5.70;99.90;;;;;;5012490;28;20309;-64
2022/04/04 01:11:14;;;;;;;15.45;8.52;;;5.60;99.90;;;;;;5011445;28;20145;-64
2022/04/04 01:13:47;;;;;;;19.08;9.68;;;5.60;99.90;;;;;;5026088;28;20072;-64
2022/04/04 01:16:13;;;;;;;13.25;8.00;;;5.70;99.90;;;;;;5024485;28;20512;-64
2022/04/04 01:18:40;;;;;;;10.55;7.47;;;5.70;99.90;;;;;;5013286;28;20064;-64
2022/04/04 01:21:06;;;;;;;12.40;8.38;;;5.70;99.90;;;;;;5017452;28;20038;-64
2022/04/04 01:23:41;;;;;;;11.48;7.93;;;5.70;99.90;;;;;;5015292;28;20050;-64
2022/04/04 01:26:09;;;;;;;11.20;8.45;;;5.70;99.90;;;;;;5011274;28;20500;-64
2022/04/04 01:28:35;;;;;;;12.48;8.13;;;5.80;99.90;;;;;;5010856;28;20088;-64
2022/04/04 01:31:00;;;;;;;11.63;7.68;;;5.80;99.90;;;;;;5023724;28;20145;-64
2022/04/04 01:33:26;;;;;;;18.85;9.23;;;5.80;99.90;;;;;;5025177;28;20080;-64
2022/04/04 01:35:52;;;;;;;16.52;9.93;;;5.80;99.90;;;;;;5019208;28;20575;-64
2022/04/04 01:38:18;;;;;;;11.52;9.02;;;5.80;99.90;;;;;;5031289;28;20057;-64
2022/04/04 01:40:43;;;;;;;17.10;11.85;;;5.80;99.90;;;;;;5027512;28;20033;-64
2022/04/04 01:43:09;;;;;;;13.60;11.00;;;5.80;99.90;;;;;;5031673;28;20404;-64
2022/04/04 01:48:19;;;;;;;15.05;10.15;;;5.80;99.90;;;;;;5027119;28;20188;-64
2022/04/04 01:50:45;;;;;;;18.10;10.85;;;5.90;99.90;;;;;;5026428;28;20045;-64
2022/04/04 01:53:26;;;;;;;17.67;10.32;;;5.80;99.90;;;;;;5019003;28;20504;-64
2022/04/04 01:55:53;;;;;;;14.98;10.60;;;5.80;99.90;;;;;;5031265;28;20060;-64
2022/04/04 01:58:19;;;;;;;19.17;11.10;;;5.90;99.90;;;;;;5012824;28;20082;-64
2022/04/04 02:00:45;;;;;;;16.85;10.73;;;5.90;99.90;;;;;;5010293;28;20054;-64
2022/04/04 02:03:10;;;;;;;19.63;10.70;;;5.90;99.90;;;;;;5011535;28;20050;-64
2022/04/04 02:05:36;;;;;;;16.85;11.20;;;5.90;99.90;;;;;;5015752;28;20042;-64
2022/04/04 02:08:03;;;;;;;16.23;10.63;;;5.90;99.90;;;;;;5030314;28;20041;-64
2022/04/04 02:10:28;;;;;;;18.60;10.60;;;5.90;99.90;;;;;;5018971;28;20092;-64
2022/04/04 02:12:54;;;;;;;14.35;11.50;;;5.90;99.90;;;;;;5012163;28;20053;-64
2022/04/04 02:15:20;;;;;;;17.63;10.93;;;5.90;99.90;;;;;;5025453;28;20049;-64
2022/04/04 02:17:45;;;;;;;15.60;10.23;;;5.90;99.90;;;;;;5021450;28;20088;-64
2022/04/04 02:20:11;;;;;;;12.60;10.43;;;5.90;99.90;;;;;;5011676;28;20046;-64
2022/04/04 02:22:37;;;;;;;16.08;9.88;;;5.90;99.90;;;;;;5028877;28;20034;-64
2022/04/04 02:25:03;;;;;;;15.77;10.25;;;5.90;99.90;;;;;;5029259;28;20543;-64
2022/04/04 02:27:29;;;;;;;19.33;10.65;;;6.00;99.90;;;;;;5016376;28;20433;-64
2022/04/04 02:29:55;;;;;;;19.65;11.13;;;6.00;99.90;;;;;;5026674;28;20042;-64
2022/04/04 02:32:20;;;;;;;18.08;10.68;;;6.00;99.90;;;;;;5029988;28;20037;-64
2022/04/04 02:34:46;;;;;;;14.45;10.70;;;6.00;99.90;;;;;;5015362;28;20064;-64
2022/04/04 02:37:13;;;;;;;15.52;10.82;;;6.00;99.90;;;;;;5010056;28;20074;-64
2022/04/04 02:39:39;;;;;;;15.60;10.85;;;6.00;99.90;;;;;;5020848;28;20393;-64
2022/04/04 02:42:05;;;;;;;16.02;10.25;;;6.10;99.90;;;;;;5018652;28;20812;-64
2022/04/04 02:44:30;;;;;;;17.88;11.18;;;6.10;99.90;;;;;;5029341;28;20048;-63
2022/04/04 02:46:56;;;;;;;15.57;10.80;;;6.10;99.90;;;;;;5029020;28;20049;-64
2022/04/04 02:49:23;;;;;;;13.57;10.38;;;6.10;99.90;;;;;;5028757;28;20128;-64
2022/04/04 02:51:49;;;;;;;17.73;11.77;;;6.20;99.90;;;;;;5029819;28;20061;-64
2022/04/04 02:54:14;;;;;;;19.17;11.27;;;6.10;99.90;;;;;;5016156;28;20048;-64
2022/04/04 02:56:41;;;;;;;17.08;11.23;;;6.10;99.90;;;;;;5029153;28;20053;-64
2022/04/04 02:59:08;;;;;;;16.48;11.93;;;6.10;99.90;;;;;;5028581;28;20050;-64
2022/04/04 03:01:35;;;;;;;19.13;10.98;;;6.10;99.90;;;;;;5017591;28;20064;-64
2022/04/04 03:04:02;;;;;;;18.58;12.27;;;6.10;99.90;;;;;;5014773;28;20048;-64
2022/04/04 03:06:28;;;;;;;22.17;11.77;;;6.20;99.90;;;;;;5010062;28;20088;-64
2022/04/04 03:08:54;;;;;;;26.73;12.02;;;6.20;99.90;;;;;;5014792;28;20045;-64
2022/04/04 03:11:20;;;;;;;23.83;12.27;;;6.20;99.90;;;;;;5008930;28;20057;-65
2022/04/04 03:13:46;;;;;;;13.57;10.75;;;6.20;99.90;;;;;;5023351;28;20041;-64
2022/04/04 03:16:12;;;;;;;18.10;8.25;;;6.20;99.90;;;;;;5023951;28;20048;-64
2022/04/04 03:18:40;;;;;;;20.17;8.50;;;6.30;99.90;;;;;;5008917;28;20068;-64
2022/04/04 03:21:06;;;;;;;10.82;7.18;;;6.40;99.90;;;;;;5017101;28;20049;-64
2022/04/04 03:23:33;;;;;;;16.25;7.88;;;6.30;99.90;;;;;;5013274;28;20073;-64
2022/04/04 03:25:59;;;;;;;14.05;7.43;;;6.30;99.90;;;;;;5018319;28;20765;-64
2022/04/04 03:28:25;;;;;;;15.70;7.55;;;6.40;99.90;;;;;;5020800;28;20042;-64
2022/04/04 03:30:51;;;;;;;18.98;8.25;;;6.30;99.90;;;;;;5011382;28;20125;-64
2022/04/04 03:33:17;;;;;;;14.05;7.88;;;6.30;99.90;;;;;;5007904;28;20057;-64
2022/04/04 03:35:43;;;;;;;20.80;9.77;;;6.30;99.90;;;;;;5010484;28;20456;-65
2022/04/04 03:38:11;;;;;;;22.80;8.63;;;6.30;99.90;;;;;;5009390;28;20045;-65
2022/04/04 03:40:37;;;;;;;18.73;9.85;;;6.30;99.90;;;;;;5014246;28;20511;-65
2022/04/04 03:43:04;;;;;;;16.02;9.38;;;6.20;99.90;;;;;;5012958;28;20037;-67
2022/04/04 03:45:30;;;;;;;22.00;9.98;;;6.10;99.90;;;;;;5028305;28;20497;-67
2022/04/04 03:47:56;;;;;;;20.85;10.23;;;6.10;99.90;;;;;;5027095;28;20045;-67
2022/04/04 03:50:23;;;;;;;19.48;9.63;;;6.10;99.90;;;;;;5013254;28;20050;-67
2022/04/04 03:52:53;;;;;;;23.20;10.93;;;6.10;99.90;;;;;;5008354;28;20049;-67
2022/04/04 03:55:30;;;;;;;20.63;10.32;;;6.10;99.90;;;;;;5007951;28;20111;-67
2022/04/04 03:57:57;;;;;;;21.55;10.13;;;6.10;99.90;;;;;;5013864;28;20042;-67
2022/04/04 04:00:23;;;;;;;23.52;11.20;;;6.00;99.90;;;;;;5026899;28;20552;-67
2022/04/04 04:02:50;;;;;;;27.33;11.43;;;6.00;99.90;;;;;;5028633;28;20054;-67
2022/04/04 04:05:15;;;;;;;19.75;9.80;;;6.00;99.90;;;;;;5014332;28;20042;-68
2022/04/04 04:07:42;;;;;;;20.75;10.32;;;6.00;99.90;;;;;;5013370;28;20090;-67
2022/04/04 04:10:11;;;;;;;19.30;10.77;;;6.00;99.90;;;;;;5028827;28;20424;-67
2022/04/04 04:12:40;;;;;;;25.15;10.80;;;6.00;99.90;;;;;;5026824;28;20038;-67
2022/04/04 04:15:14;;;;;;;16.60;11.20;;;6.00;99.90;;;;;;5015998;28;20092;-67
2022/04/04 04:17:40;;;;;;;24.15;11.82;;;5.90;99.90;;;;;;5008941;28;20116;-67
2022/04/04 04:20:29;;;;;;;19.20;11.70;;;5.90;99.90;;;;;;5008403;28;20053;-66
2022/04/04 04:22:58;;;;;;;24.02;9.75;;;5.90;99.90;;;;;;5008212;28;20045;-66
2022/04/04 04:25:27;;;;;;;21.05;9.93;;;5.90;99.90;;;;;;5007559;28;20042;-66
2022/04/04 04:27:54;;;;;;;24.42;10.25;;;5.90;99.90;;;;;;5009194;28;20050;-66
2022/04/04 04:30:20;;;;;;;26.48;10.63;;;5.90;99.90;;;;;;5026167;28;20053;-66
2022/04/04 04:32:50;;;;;;;25.75;9.82;;;5.90;99.90;;;;;;5023994;28;20033;-66
2022/04/04 04:35:17;;;;;;;20.58;9.38;;;5.90;99.90;;;;;;5010999;28;20099;-66
2022/04/04 04:37:44;;;;;;;20.90;10.55;;;5.90;99.90;;;;;;5025057;28;20132;-66
2022/04/04 04:40:09;;;;;;;16.40;10.32;;;5.90;99.90;;;;;;5032630;28;20447;-66
2022/04/04 04:42:36;;;;;;;18.48;9.57;;;5.90;99.90;;;;;;5015833;28;20141;-66
2022/04/04 04:45:04;;;;;;;19.00;8.93;;;5.90;99.90;;;;;;5027142;28;20045;-66
2022/04/04 04:47:30;;;;;;;15.80;8.55;;;6.00;99.90;;;;;;5018321;28;20042;-66
2022/04/04 04:49:56;;;;;;;16.33;8.07;;;5.90;99.90;;;;;;5015998;28;20417;-66
2022/04/04 04:52:22;;;;;;;13.25;7.10;;;5.90;99.90;;;;;;5027837;28;20053;-66
2022/04/04 04:54:48;;;;;;;13.13;6.97;;;5.90;99.90;;;;;;5027883;28;20474;-67
2022/04/04 04:57:13;;;;;;;13.35;6.07;;;5.90;99.90;;;;;;5011389;28;20050;-67
2022/04/04 04:59:39;;;;;;;16.20;6.18;;;5.80;99.90;;;;;;5012062;28;20096;-67
2022/04/04 05:02:05;;;;;;;12.82;5.13;;;5.80;99.90;;;;;;5018460;28;20104;-67
2022/04/04 05:04:30;;;;;;;19.77;5.50;;;5.70;99.90;;;;;;5016593;28;20045;-67
2022/04/04 05:06:56;;;;;;;16.30;5.90;;;5.70;99.90;;;;;;5012553;28;20366;-67
2022/04/04 05:09:22;;;;;;;9.95;5.40;;;5.70;99.90;;;;;;5029487;28;20037;-67
2022/04/04 05:11:47;;;;;;;9.40;4.57;;;5.60;99.90;;;;;;5010998;28;20413;-67
2022/04/04 05:14:16;;;;;;;10.10;4.22;;;5.60;99.90;;;;;;5018139;28;20049;-68
2022/04/04 05:16:45;;;;;;;4.68;2.92;;;5.50;99.90;;;;;;5031428;28;20056;-68
2022/04/04 05:19:12;;;;;;;6.93;2.70;;;5.50;99.90;;;;;;5016503;28;20662;-68
2022/04/04 05:21:38;;;;;;;16.15;4.13;;;5.50;99.90;;;;;;5015883;28;20422;-68
2022/04/04 05:24:08;;;;;;;13.77;3.92;;;5.40;99.90;;;;;;5013416;28;20046;-68
2022/04/04 05:26:34;;;;;;;8.43;2.70;;;5.40;99.90;;;;;;5011458;28;20054;-68
2022/04/04 05:29:00;;;;;;;10.55;3.20;;;5.40;99.90;;;;;;5028711;28;20052;-68
2022/04/04 05:31:27;;;;;;;8.93;3.30;;;5.40;99.90;;;;;;5022955;28;20042;-68
2022/04/04 05:33:54;;;;;;;6.57;2.38;;;5.30;99.90;;;;;;5030697;28;20489;-68
2022/04/04 05:36:20;;;;;;;9.57;2.20;;;5.30;99.90;;;;;;5029797;28;20088;-69
2022/04/04 05:38:48;;;;;;;6.35;2.00;;;5.30;99.90;;;;;;5021301;28;20041;-69
2022/04/04 05:41:14;;;;;;;10.23;2.00;;;5.30;99.90;;;;;;5016134;28;20049;-69
2022/04/04 05:43:39;;;;;;;2.95;1.95;;;5.30;99.90;;;;;;5012312;28;20050;-69
2022/04/04 05:46:05;;;;;;;8.30;2.90;;;5.30;99.90;;;;;;5010210;28;20060;-69
2022/04/04 05:48:31;;;;;;;5.03;2.00;;;5.30;99.90;;;;;;5013336;28;20053;-69
2022/04/04 05:50:57;;;;;;;6.03;2.58;;;5.40;99.90;;;;;;5021231;28;20045;-68
2022/04/04 05:53:22;;;;;;;8.00;2.25;;;5.30;99.90;;;;;;5027671;28;20049;-68
2022/04/04 05:55:48;;;;;;;5.78;2.70;;;5.40;99.90;;;;;;5011376;28;20045;-68
2022/04/04 05:58:13;;;;;;;3.60;2.50;;;5.40;99.90;;;;;;5009613;28;20536;-68
2022/04/04 06:00:39;;;;;;;9.20;3.13;;;5.40;99.90;;;;;;5023658;28;20136;-68
2022/04/04 06:03:06;;;;;;;6.68;3.42;;;5.40;99.90;;;;;;5030901;28;20037;-68
2022/04/04 06:05:32;;;;;;;8.00;4.18;;;5.50;99.90;;;;;;5030183;28;20119;-68
2022/04/04 06:07:57;;;;;;;13.00;3.95;;;5.40;99.90;;;;;;5022374;28;20552;-68
2022/04/04 06:10:23;;;;;;;8.43;3.33;;;5.40;99.90;;;;;;5010646;28;20049;-68
2022/04/04 06:12:49;;;;;;;19.90;3.75;;;5.50;99.90;;;;;;5028704;28;20681;-68
2022/04/04 06:15:15;;;;;;;10.18;4.30;;;5.50;99.90;;;;;;5027363;28;20100;-68
2022/04/04 06:17:41;;;;;;;12.98;5.53;;;5.50;99.90;;;;;;5020423;28;20045;-68
2022/04/04 06:20:08;;;;;;;9.90;5.43;;;5.50;99.90;;;;;;5011495;28;20065;-68
2022/04/04 06:22:36;;;;;;;17.23;6.32;;;5.50;99.90;;;;;;5029088;28;20428;-68
2022/04/04 06:25:03;;;;;;;14.43;5.13;;;5.60;99.90;;;;;;5012262;28;20161;-68
2022/04/04 06:27:28;;;;;;;15.00;7.15;;;5.60;99.90;;;;;;5009590;28;20125;-68
2022/04/04 06:29:54;;;;;;;20.45;8.40;;;5.70;99.90;;;;;;5021879;28;20129;-67
2022/04/04 06:32:19;;;;;;;11.65;6.93;;;5.70;99.90;;;;;;5029302;28;20040;-67
2022/04/04 06:34:45;;;;;;;15.95;8.85;;;5.80;99.90;;;;;;5024306;28;20083;-68
2022/04/04 06:37:10;;;;;;;20.08;8.77;;;5.80;99.90;;;;;;5030332;28;20099;-68
2022/04/04 06:39:37;;;;;;;28.70;10.23;;;5.90;99.90;;;;;;5029752;28;20042;-68
2022/04/04 06:42:03;;;;;;;23.15;10.75;;;5.90;99.90;;;;;;5029217;28;20084;-68
2022/04/04 06:44:29;;;;;;;28.63;9.63;;;5.90;99.90;;;;;;5018496;28;20128;-68
2022/04/04 06:46:56;;;;;;;24.17;8.98;;;6.00;99.90;;;;;;5029231;28;20137;-68
2022/04/04 06:49:22;;;;;;;20.38;10.50;;;6.00;99.90;;;;;;5007510;28;20042;-67
2022/04/04 06:51:48;;;;;;;15.98;9.27;;;6.00;99.90;;;;;;5022960;28;20806;-67
2022/04/04 06:54:13;;;;;;;19.33;9.60;;;6.00;99.90;;;;;;5029983;28;20140;-67
2022/04/04 06:56:39;;;;;;;21.88;9.88;;;6.00;99.90;;;;;;5019202;28;20501;-67
2022/04/04 06:59:04;;;;;;;19.02;9.80;;;6.00;99.90;;;;;;5010282;28;20553;-67
2022/04/04 07:01:31;;;;;;;23.48;9.98;;;6.00;99.90;;;;;;5009670;28;20077;-68
2022/04/04 07:03:58;;;;;;;16.70;8.82;;;6.00;99.90;;;;;;5018971;28;20044;-68
2022/04/04 07:06:25;;;;;;;20.83;8.77;;;6.10;99.90;;;;;;5024881;28;20049;-68
2022/04/04 07:08:50;;;;;;;17.38;9.30;;;6.10;99.90;;;;;;5021873;28;20567;-68
2022/04/04 07:11:16;;;;;;;16.48;8.27;;;6.10;99.90;;;;;;5023046;28;20045;-67
2022/04/04 07:13:43;;;;;;;19.00;9.43;;;6.10;99.90;;;;;;5026542;28;20060;-67
2022/04/04 07:16:09;;;;;;;16.00;8.35;;;6.10;99.90;;;;;;5025968;28;20091;-67
2022/04/04 07:18:34;;;;;;;26.48;10.82;;;6.10;99.90;;;;;;5025487;28;20037;-67
2022/04/04 07:21:00;;;;;;;19.52;8.98;;;6.10;99.90;;;;;;5024070;28;20464;-67
2022/04/04 07:23:25;;;;;;;19.92;9.57;;;6.20;99.90;;;;;;5027133;28;20038;-67
2022/04/04 07:25:51;;;;;;;24.77;8.88;;;6.20;99.90;;;;;;5021292;28;20029;-67
2022/04/04 07:28:17;;;;;;;17.45;8.43;;;6.20;99.90;;;;;;5026603;28;20094;-67
2022/04/04 07:30:45;;;;;;;17.67;7.57;;;6.20;99.90;;;;;;5023511;28;20045;-67
2022/04/04 07:33:15;;;;;;;20.08;8.73;;;6.20;99.90;;;;;;5024774;28;20096;-67
2022/04/04 07:35:41;;;;;;;17.30;8.45;;;6.20;99.90;;;;;;5027446;28;20400;-67
2022/04/04 07:38:07;;;;;;;19.48;9.23;;;6.30;99.90;;;;;;5026704;28;20041;-67
2022/04/04 07:40:32;;;;;;;15.90;7.88;;;6.30;99.90;;;;;;5020234;28;20408;-67
2022/04/04 07:42:58;;;;;;;16.05;8.27;;;6.30;99.90;;;;;;5028863;28;20147;-68
2022/04/04 07:45:23;;;;;;;16.23;9.40;;;6.30;99.90;;;;;;5019738;28;20063;-68
2022/04/04 07:47:50;;;;;;;22.45;8.90;;;6.30;99.90;;;;;;5020104;28;20068;-68
2022/04/04 07:50:16;;;;;;;15.02;7.88;;;6.30;99.90;;;;;;5028634;28;20405;-68
2022/04/04 07:52:41;;;;;;;20.92;9.18;;;6.30;99.90;;;;;;5025838;28;20062;-68
2022/04/04 07:55:09;;;;;;;14.25;7.38;;;6.40;99.90;;;;;;5028970;28;20049;-68
2022/04/04 07:57:35;;;;;;;15.88;8.13;;;6.30;99.90;;;;;;5027143;28;20115;-68
2022/04/04 08:00:00;;;;;;;20.23;8.80;;;6.40;99.90;;;;;;5028162;28;20045;-67
2022/04/04 08:02:26;;;;;;;17.27;7.60;;;6.40;99.90;;;;;;5020670;28;20088;-68
2022/04/04 08:04:52;;;;;;;12.90;6.72;;;6.40;99.90;;;;;;5017348;28;20049;-67
2022/04/04 08:07:19;;;;;;;10.95;6.50;;;6.40;99.90;;;;;;5027628;28;20041;-67
2022/04/04 08:09:46;;;;;;;13.45;7.68;;;6.40;99.90;;;;;;5016783;28;20060;-67
2022/04/04 08:12:12;;;;;;;9.75;6.00;;;6.40;99.90;;;;;;5022377;28;20037;-67
2022/04/04 08:14:37;;;;;;;15.75;5.72;;;6.40;99.90;;;;;;5011181;28;20092;-67
2022/04/04 08:17:04;;;;;;;8.85;6.10;;;6.50;99.90;;;;;;5014152;28;20041;-67
2022/04/04 08:19:30;;;;;;;13.52;5.93;;;6.50;99.90;;;;;;5018772;28;20544;-67
2022/04/04 08:21:56;;;;;;;10.60;6.55;;;6.50;99.90;;;;;;5013025;28;20046;-67
2022/04/04 08:24:22;;;;;;;13.70;5.47;;;6.50;99.90;;;;;;5012328;28;20037;-67
2022/04/04 08:26:49;;;;;;;12.60;5.55;;;6.60;99.90;;;;;;5028471;28;20102;-67
2022/04/04 08:29:14;;;;;;;12.73;6.47;;;6.60;99.90;;;;;;5011942;28;20512;-67
2022/04/04 08:31:40;;;;;;;14.32;5.53;;;6.60;99.90;;;;;;5007324;28;20045;-68
2022/04/04 08:34:07;;;;;;;8.82;4.57;;;6.60;99.90;;;;;;5009253;28;20042;-67
2022/04/04 08:36:33;;;;;;;12.40;4.80;;;6.60;99.90;;;;;;5012006;28;20057;-67
2022/04/04 08:38:59;;;;;;;12.18;5.03;;;6.60;99.90;;;;;;5009267;28;20052;-67
2022/04/04 08:41:25;;;;;;;12.02;5.15;;;6.70;99.90;;;;;;5020507;28;20053;-67
2022/04/04 08:43:52;;;;;;;15.55;4.63;;;6.60;99.90;;;;;;5010930;28;20118;-67
2022/04/04 08:46:18;;;;;;;11.70;4.78;;;6.70;99.90;;;;;;5008331;28;20118;-67
2022/04/04 08:48:43;;;;;;;11.10;4.80;;;6.80;99.90;;;;;;5007518;28;20077;-67
2022/04/04 08:51:10;;;;;;;17.08;4.32;;;6.80;99.90;;;;;;5012089;28;20045;-67
2022/04/04 08:53:37;;;;;;;16.05;4.95;;;6.80;99.90;;;;;;5016390;28;20057;-67
2022/04/04 08:56:05;;;;;;;13.05;4.28;;;6.80;99.90;;;;;;5027808;28;20046;-67
2022/04/04 08:58:31;;;;;;;10.63;3.90;;;6.80;99.90;;;;;;5007907;28;20140;-67
2022/04/04 09:00:57;;;;;;;11.98;4.65;;;6.80;99.90;;;;;;5018350;28;20080;-67
2022/04/04 09:03:29;;;;;;;15.93;5.13;;;6.80;99.90;;;;;;5006231;28;20393;-67
2022/04/04 09:05:57;;;;;;;13.63;4.28;;;6.90;99.90;;;;;;5006248;28;20049;-67
2022/04/04 09:08:24;;;;;;;17.75;5.15;;;6.90;99.90;;;;;;5006177;28;20065;-67
2022/04/04 09:10:54;;;;;;;13.00;5.05;;;6.90;99.90;;;;;;5007359;28;20042;-67
2022/04/04 09:13:21;;;;;;;18.38;4.50;;;6.90;99.90;;;;;;5025254;28;20505;-67
2022/04/04 09:16:02;;;;;;;15.07;6.45;;;6.90;99.90;;;;;;5016051;28;20050;-67
2022/04/04 09:18:36;;;;;;;15.40;4.20;;;7.00;99.90;;;;;;5005638;28;20053;-67
2022/04/04 09:21:12;;;;;;;12.63;4.85;;;7.00;99.90;;;;;;5011006;28;20041;-67
2022/04/04 09:23:46;;;;;;;21.88;5.50;;;7.00;99.90;;;;;;5010814;28;20081;-67
2022/04/04 09:26:32;;;;;;;16.17;4.88;;;7.10;99.90;;;;;;5017296;28;20050;-67
2022/04/04 09:29:06;;;;;;;12.57;4.32;;;7.10;99.90;;;;;;5015783;28;20054;-67
2022/04/04 09:31:32;;;;;;;14.40;4.57;;;7.10;99.90;;;;;;5021655;28;20080;-67
2022/04/04 09:34:03;;;;;;;17.08;5.18;;;7.10;99.90;;;;;;5026714;28;20050;-66
2022/04/04 09:36:30;;;;;;;10.80;3.85;;;7.10;99.90;;;;;;5022699;28;20049;-67
2022/04/04 09:39:09;;;;;;;21.80;5.35;;;7.10;99.90;;;;;;5011033;28;20061;-67
2022/04/04 09:41:36;;;;;;;19.27;4.05;;;7.10;99.90;;;;;;5012220;28;20054;-67
2022/04/04 09:44:03;;;;;;;11.32;3.53;;;7.10;99.90;;;;;;5019598;28;20045;-67
2022/04/04 09:46:37;;;;;;;19.55;4.40;;;7.10;99.90;;;;;;5035247;28;20131;-67
2022/04/04 09:49:30;;;;;;;13.23;3.67;;;7.20;99.90;;;;;;5023875;28;20081;-68
2022/04/04 09:51:56;;;;;;;16.08;3.35;;;7.20;99.90;;;;;;5027316;28;20080;-67
2022/04/04 09:54:30;;;;;;;15.13;3.28;;;7.20;99.90;;;;;;5010438;28;20074;-67
2022/04/04 09:57:20;;;;;;;8.90;2.85;;;7.20;99.90;;;;;;5021054;28;20053;-67
2022/04/04 09:59:47;;;;;;;14.00;3.35;;;7.20;99.90;;;;;;5030051;28;20122;-67
2022/04/04 10:02:14;;;;;;;15.35;3.25;;;7.20;99.90;;;;;;5022913;28;20124;-68
2022/04/04 10:04:42;;;;;;;15.20;3.53;;;7.20;99.90;;;;;;5015439;28;20115;-68
2022/04/04 10:07:09;;;;;;;8.50;2.80;;;7.30;99.90;;;;;;5029289;28;20042;-69
2022/04/04 10:09:36;;;;;;;13.32;3.35;;;7.30;99.90;;;;;;5029763;28;20049;-68
2022/04/04 10:12:03;;;;;;;8.55;2.90;;;7.30;99.90;;;;;;5028436;28;20501;-68
2022/04/04 10:14:31;;;;;;;14.68;3.30;;;7.30;99.90;;;;;;5020108;28;20050;-68
2022/04/04 10:16:57;;;;;;;10.30;3.72;;;7.40;99.90;;;;;;5030289;28;20049;-68
2022/04/04 10:19:25;;;;;;;10.00;3.80;;;7.40;99.90;;;;;;5008786;28;20128;-68
2022/04/04 10:21:51;;;;;;;11.85;3.08;;;7.40;99.90;;;;;;5010460;28;20050;-68
2022/04/04 10:24:18;;;;;;;19.73;4.65;;;7.40;99.90;;;;;;5016031;28;20117;-68
2022/04/04 10:26:50;;;;;;;11.02;3.00;;;7.40;99.90;;;;;;5014803;28;20041;-68
2022/04/04 10:29:18;;;;;;;12.27;3.55;;;7.40;99.90;;;;;;5017256;28;20266;-67
2022/04/04 10:31:52;;;;;;;9.02;2.80;;;7.40;99.90;;;;;;5021400;28;20048;-67
2022/04/04 10:34:22;;;;;;;6.95;2.83;;;7.50;99.90;;;;;;5011329;28;20132;-67
2022/04/04 10:37:06;;;;;;;6.05;2.70;;;7.50;99.90;;;;;;5010943;28;20096;-67
2022/04/04 10:39:33;;;;;;;10.25;2.97;;;7.50;99.90;;;;;;5011506;28;20045;-67
2022/04/04 10:41:58;;;;;;;8.18;2.33;;;7.50;99.90;;;;;;5029518;28;20080;-68
2022/04/04 10:44:47;;;;;;;8.85;2.58;;;7.50;99.90;;;;;;5015133;28;20051;-68
2022/04/04 10:47:20;;;;;;;12.80;3.22;;;7.50;99.90;;;;;;5028291;28;20117;-67
2022/04/04 10:49:47;;;;;;;6.75;2.40;;;7.60;99.90;;;;;;5013836;28;20046;-67
2022/04/04 10:52:13;;;;;;;7.13;2.75;;;7.60;99.90;;;;;;5008032;28;20053;-67
2022/04/04 10:54:38;;;;;;;8.73;2.83;;;7.60;99.90;;;;;;5009510;28;20057;-67
2022/04/04 10:57:16;;;;;;;4.90;2.25;;;7.70;99.90;;;;;;5009082;28;20046;-67
2022/04/04 10:59:45;;;;;;;9.55;2.85;;;7.60;99.90;;;;;;5022858;28;20071;-67
2022/04/04 11:02:14;;;;;;;8.35;2.78;;;7.70;99.90;;;;;;5029356;28;20052;-68
2022/04/04 11:07:40;;;;;;;11.32;2.50;;;7.80;99.90;;;;;;5021223;28;20106;-68
2022/04/04 11:12:56;;;;;;;6.93;2.42;;;7.80;99.90;;;;;;5027446;28;20128;-67
2022/04/04 11:15:42;;;;;;;10.30;3.10;;;7.90;99.90;;;;;;5026244;28;20576;-67
2022/04/04 11:18:15;;;;;;;5.20;2.30;;;7.90;99.90;;;;;;5027841;28;20060;-67
2022/04/04 11:21:08;;;;;;;6.72;3.42;;;7.90;99.90;;;;;;5020385;28;20046;-67
2022/04/04 11:23:36;;;;;;;9.32;3.05;;;8.00;99.90;;;;;;5024736;28;20098;-67
2022/04/04 11:26:18;;;;;;;7.78;3.13;;;8.00;99.90;;;;;;5022940;28;20400;-68
2022/04/04 11:28:46;;;;;;;8.75;4.38;;;8.00;99.90;;;;;;5031751;28;20481;-67
2022/04/04 11:31:12;;;;;;;12.98;4.47;;;8.10;99.90;;;;;;5028617;28;20413;-67
2022/04/04 11:34:08;;;;;;;11.90;5.20;;;8.00;99.90;;;;;;5019423;28;20413;-68
2022/04/04 11:36:43;;;;;;;13.32;6.15;;;8.10;99.90;;;;;;5014613;28;20561;-68
2022/04/04 11:39:10;;;;;;;13.50;6.03;;;8.10;99.90;;;;;;5022858;28;20061;-67
2022/04/04 11:41:56;;;;;;;;;;;;;;;;;;;;;
2022/04/04 11:44:26;;;;;;;11.00;6.30;;;8.20;99.90;;;;;;5016743;28;20053;-68
2022/04/04 11:47:06;;;;;;;21.27;7.72;;;8.20;99.90;;;;;;5009832;28;20485;-67
2022/04/04 11:49:37;;;;;;;21.80;8.10;;;8.20;99.90;;;;;;5017932;28;20051;-67
2022/04/04 11:54:53;;;;;;;19.88;8.32;;;8.20;99.90;;;;;;5019772;28;20140;-67
2022/04/04 11:57:22;;;;;;;23.80;9.30;;;8.30;99.90;;;;;;5027730;28;20053;-67
2022/04/04 11:59:49;;;;;;;19.50;8.70;;;8.30;99.90;;;;;;5018736;28;20074;-67
2022/04/04 12:02:16;;;;;;;23.45;8.82;;;8.30;99.90;;;;;;5014311;28;20096;-68
2022/04/04 12:04:43;;;;;;;22.17;8.77;;;8.30;99.90;;;;;;5017678;28;20049;-67
2022/04/04 12:07:22;;;;;;;;;;;;;;;;;;;;;
2022/04/04 12:09:52;;;;;;;23.23;7.70;;;8.30;99.90;;;;;;5009021;28;20058;-67
2022/04/04 12:12:17;;;;;;;19.50;8.20;;;8.40;99.90;;;;;;5007289;28;20535;-67
2022/04/04 12:14:47;;;;;;;18.77;8.82;;;8.40;99.90;;;;;;5008267;28;20038;-67
2022/04/04 12:17:14;;;;;;;18.85;8.75;;;8.40;99.90;;;;;;5009292;28;20587;-67
2022/04/04 12:19:47;;;;;;;18.83;8.35;;;8.50;99.90;;;;;;5014403;28;20140;-67
2022/04/04 12:25:01;;;;;;;;;;;8.60;99.90;;;;;;5020301;28;19921;-67
2022/04/04 12:27:28;;;;;;;18.55;9.63;;;8.60;99.90;;;;;;5025396;28;19921;-67
2022/04/04 12:29:59;;;;;;;21.30;9.27;;;8.60;99.90;;;;;;5009605;28;20505;-67
2022/04/04 12:32:26;;;;;;;28.52;8.75;;;8.70;99.90;;;;;;5008520;28;20045;-67
2022/04/04 12:35:03;;;;;;;16.52;9.30;;;8.70;99.90;;;;;;5021860;28;20052;-67
2022/04/04 12:37:46;;;;;;;30.73;11.18;;;8.80;99.90;;;;;;5015348;28;20045;-67
2022/04/04 12:40:23;;;;;;;27.45;10.55;;;8.80;99.90;;;;;;5012444;28;20048;-67
2022/04/04 12:42:51;;;;;;;25.30;10.88;;;8.90;99.90;;;;;;5008863;28;20057;-67
2022/04/04 12:45:18;;;;;;;20.88;9.15;;;8.90;99.90;;;;;;5028170;28;20405;-67
2022/04/04 12:47:56;;;;;;;19.67;8.77;;;8.90;99.90;;;;;;5028319;28;20042;-66
2022/04/04 12:50:24;;;;;;;31.13;9.77;;;9.00;99.90;;;;;;5007224;28;20042;-66
2022/04/04 12:53:03;;;;;;;19.20;8.98;;;9.00;99.90;;;;;;5010633;28;20116;-67
2022/04/04 12:55:29;;;;;;;23.15;9.35;;;9.00;99.90;;;;;;5012731;28;20060;-66
2022/04/04 12:57:55;;;;;;;36.45;10.55;;;9.10;99.90;;;;;;5012893;28;20046;-65
2022/04/04 13:00:40;;;;;;;27.48;10.18;;;9.10;99.90;;;;;;5011388;28;20566;-66
2022/04/04 13:03:26;;;;;;;25.75;10.07;;;9.10;99.90;;;;;;5012055;28;20057;-66
2022/04/04 13:06:01;;;;;;;28.73;9.23;;;9.10;99.90;;;;;;5012537;28;20088;-66
2022/04/04 13:08:30;;;;;;;21.63;8.13;;;9.10;99.90;;;;;;5011265;28;20056;-65